createdAt,value
2019-03-30T00:01:56.784Z,19.30
2019-03-30T00:13:58.946Z,18.10
2019-03-30T00:23:13.271Z,16.30
2019-03-30T00:29:01.414Z,15.90
2019-03-30T00:34:39.122Z,15.03
2019-03-30T00:40:27.169Z,17.12
2019-03-30T00:46:15.305Z,16.32
2019-03-30T00:52:03.649Z,14.65
2019-03-30T00:57:51.397Z,15.90
2019-03-30T01:03:39.939Z,16.15
2019-03-30T01:09:30.553Z,16.27
2019-03-30T01:15:19.488Z,16.37
2019-03-30T01:24:32.121Z,16.00
2019-03-30T01:36:32.610Z,17.90
2019-03-30T01:42:33.973Z,16.52
2019-03-30T01:58:11.101Z,17.57
2019-03-30T02:03:59.016Z,17.25
2019-03-30T02:09:36.946Z,17.60
2019-03-30T02:15:25.696Z,17.27
2019-03-30T02:30:57.110Z,18.73
2019-03-30T02:42:57.229Z,19.25
2019-03-30T02:48:58.155Z,19.05
2019-03-30T02:54:57.958Z,19.73
2019-03-30T03:00:57.968Z,19.30
2019-03-30T03:06:57.765Z,19.37
2019-03-30T03:12:58.657Z,18.67
2019-03-30T03:18:59.309Z,21.25
2019-03-30T03:28:27.756Z,20.97
2019-03-30T03:34:15.732Z,19.87
2019-03-30T03:39:52.995Z,21.80
2019-03-30T03:45:42.469Z,20.27
2019-03-30T03:51:31.223Z,19.48
2019-03-30T03:57:19.781Z,20.57
2019-03-30T04:03:08.853Z,20.97
2019-03-30T04:08:57.810Z,18.45
2019-03-30T04:14:48.901Z,19.45
2019-03-30T04:20:37.051Z,18.87
2019-03-30T04:29:49.527Z,17.57
2019-03-30T04:35:50.057Z,19.77
2019-03-30T04:47:49.854Z,19.37
2019-03-30T04:53:50.171Z,19.50
2019-03-30T04:59:50.906Z,19.55
2019-03-30T05:05:51.416Z,20.12
2019-03-30T05:11:52.133Z,21.55
2019-03-30T05:17:52.239Z,21.33
2019-03-30T05:23:52.143Z,24.18
2019-03-30T05:33:11.403Z,26.20
2019-03-30T05:39:00.764Z,27.50
2019-03-30T05:44:37.553Z,28.70
2019-03-30T05:50:25.495Z,25.92
2019-03-30T05:56:13.625Z,29.25
2019-03-30T06:02:01.770Z,29.85
2019-03-30T06:07:49.706Z,32.00
2019-03-30T06:13:38.060Z,30.85
2019-03-30T06:19:26.506Z,29.67
2019-03-30T06:25:14.379Z,27.37
2019-03-30T06:34:30.102Z,29.70
2019-03-30T06:40:30.834Z,29.27
2019-03-30T06:46:31.541Z,27.35
2019-03-30T06:52:31.563Z,29.30
2019-03-30T06:58:32.175Z,28.23
2019-03-30T07:04:32.181Z,28.83
2019-03-30T07:10:32.083Z,28.77
2019-03-30T07:22:34.128Z,28.02
2019-03-30T07:28:34.971Z,30.08
2019-03-30T07:37:51.753Z,29.67
2019-03-30T07:43:40.302Z,29.70
2019-03-30T07:49:16.890Z,30.30
2019-03-30T07:55:06.372Z,27.52
2019-03-30T08:00:55.428Z,26.07
2019-03-30T08:06:43.269Z,26.68
2019-03-30T08:12:31.513Z,22.70
2019-03-30T08:18:19.857Z,20.50
2019-03-30T08:24:08.615Z,26.37
2019-03-30T08:29:57.168Z,31.33
2019-03-30T08:39:11.091Z,29.37
2019-03-30T11:09:33.889Z,28.42
2019-03-30T11:12:03.446Z,19.20
2019-03-30T11:14:33.024Z,17.55
2019-03-30T11:17:02.633Z,63.97
2019-03-30T11:19:32.270Z,24.23
2019-03-30T11:22:03.340Z,19.60
2019-03-30T11:24:33.134Z,36.85
2019-03-30T11:27:02.770Z,15.33
2019-03-30T11:29:32.291Z,15.47
2019-03-30T11:32:01.819Z,18.82
2019-03-30T11:34:31.457Z,15.03
2019-03-30T11:37:02.750Z,14.80
2019-03-30T11:39:34.244Z,20.68
2019-03-30T11:44:32.714Z,15.18
2019-03-30T11:47:02.382Z,14.65
2019-03-30T11:49:32.069Z,16.32
2019-03-30T11:52:01.877Z,18.03
2019-03-30T11:54:31.625Z,15.55
2019-03-30T11:57:01.216Z,15.55
2019-03-30T11:59:30.761Z,15.53
2019-03-30T12:02:01.183Z,14.38
2019-03-30T12:04:30.660Z,15.38
2019-03-30T12:07:00.215Z,25.92
2019-03-30T12:09:29.684Z,16.90
2019-03-30T12:11:59.171Z,16.42
2019-03-30T12:14:28.596Z,15.05
2019-03-30T12:16:58.161Z,16.00
2019-03-30T12:19:27.770Z,15.95
2019-03-30T12:21:57.264Z,14.15
2019-03-30T12:24:26.815Z,17.77
2019-03-30T12:26:56.350Z,15.25
2019-03-30T12:29:25.849Z,15.75
2019-03-30T12:31:55.250Z,14.63
2019-03-30T12:34:24.750Z,17.35
2019-03-30T12:36:55.760Z,17.15
2019-03-30T12:41:56.066Z,16.57
2019-03-30T12:44:25.816Z,16.55
2019-03-30T12:46:55.573Z,16.17
2019-03-30T12:49:25.230Z,15.85
2019-03-30T12:51:54.911Z,15.32
2019-03-30T12:54:24.534Z,17.07
2019-03-30T12:56:54.154Z,18.10
2019-03-30T12:59:23.683Z,17.15
2019-03-30T13:01:53.172Z,15.32
2019-03-30T13:04:22.842Z,16.70
2019-03-30T13:06:52.671Z,15.10
2019-03-30T13:11:51.317Z,15.40
2019-03-30T13:14:20.951Z,16.00
2019-03-30T13:16:50.575Z,15.05
2019-03-30T13:19:20.226Z,14.93
2019-03-30T13:21:53.051Z,13.72
2019-03-30T13:24:21.298Z,14.87
2019-03-30T13:26:50.942Z,16.20
2019-03-30T13:29:20.657Z,14.40
2019-03-30T13:31:50.388Z,13.85
2019-03-30T13:34:20.017Z,12.82
2019-03-30T13:36:49.754Z,14.60
2019-03-30T13:39:19.472Z,13.93
2019-03-30T13:41:49.097Z,17.48
2019-03-30T13:44:18.733Z,15.78
2019-03-30T13:46:48.481Z,16.50
2019-03-30T13:49:18.188Z,15.63
2019-03-30T13:51:47.821Z,13.75
2019-03-30T13:54:17.557Z,15.20
2019-03-30T13:56:47.380Z,14.38
2019-03-30T13:59:17.120Z,15.55
2019-03-30T14:01:46.725Z,19.65
2019-03-30T14:04:17.390Z,14.73
2019-03-30T14:06:47.132Z,14.98
2019-03-30T14:09:16.849Z,16.15
2019-03-30T14:11:46.637Z,15.98
2019-03-30T14:14:16.417Z,17.77
2019-03-30T14:16:46.155Z,17.05
2019-03-30T14:19:15.976Z,16.95
2019-03-30T14:21:45.627Z,16.65
2019-03-30T14:24:15.531Z,14.85
2019-03-30T14:26:45.159Z,16.30
2019-03-30T14:29:14.793Z,14.93
2019-03-30T14:31:44.360Z,14.98
2019-03-30T14:34:14.053Z,15.78
2019-03-30T14:36:43.778Z,19.27
2019-03-30T14:39:13.410Z,15.60
2019-03-30T14:41:43.138Z,15.90
2019-03-30T14:44:12.876Z,14.75
2019-03-30T14:46:42.599Z,15.55
2019-03-30T14:49:12.125Z,15.32
2019-03-30T14:51:41.970Z,17.67
2019-03-30T14:54:11.587Z,18.37
2019-03-30T14:56:45.790Z,19.57
2019-03-30T14:59:14.425Z,18.65
2019-03-30T15:01:44.549Z,18.87
2019-03-30T15:04:14.167Z,19.92
2019-03-30T15:06:44.020Z,18.37
2019-03-30T15:09:13.758Z,18.77
2019-03-30T15:11:43.582Z,20.40
2019-03-30T15:14:13.316Z,19.48
2019-03-30T15:16:43.047Z,20.65
2019-03-30T15:19:12.669Z,19.98
2019-03-30T15:21:42.237Z,21.70
2019-03-30T15:24:11.833Z,21.80
2019-03-30T15:26:41.564Z,20.43
2019-03-30T15:29:11.602Z,22.02
2019-03-30T15:31:41.217Z,21.87
2019-03-30T15:34:10.954Z,24.60
2019-03-30T15:36:40.532Z,29.27
2019-03-30T15:39:10.208Z,29.17
2019-03-30T15:41:39.826Z,24.03
2019-03-30T15:44:09.556Z,23.92
2019-03-30T15:46:39.191Z,22.60
2019-03-30T15:49:09.801Z,24.23
2019-03-30T15:51:39.570Z,31.02
2019-03-30T15:54:09.207Z,42.77
2019-03-30T15:56:38.945Z,30.70
2019-03-30T15:59:08.788Z,26.17
2019-03-30T16:01:38.504Z,24.80
2019-03-30T16:04:08.228Z,23.75
2019-03-30T16:06:37.986Z,23.10
2019-03-30T16:09:07.893Z,23.80
2019-03-30T16:11:37.466Z,23.47
2019-03-30T16:14:07.247Z,23.55
2019-03-30T16:16:36.888Z,26.02
2019-03-30T16:19:06.432Z,24.80
2019-03-30T16:21:36.144Z,25.05
2019-03-30T16:24:06.068Z,29.50
2019-03-30T16:26:42.282Z,55.98
2019-03-30T16:29:08.082Z,45.30
2019-03-30T16:31:38.950Z,48.02
2019-03-30T16:34:08.574Z,47.88
2019-03-30T16:36:38.305Z,43.00
2019-03-30T16:39:08.137Z,48.03
2019-03-30T16:41:37.864Z,54.63
2019-03-30T16:44:07.407Z,41.57
2019-03-30T16:46:37.116Z,45.63
2019-03-30T16:49:06.749Z,38.37
2019-03-30T16:51:36.343Z,45.57
2019-03-30T16:56:35.926Z,30.92
2019-03-30T16:59:05.972Z,38.17
2019-03-30T17:01:35.796Z,34.87
2019-03-30T17:04:05.431Z,36.93
2019-03-30T17:06:35.177Z,31.60
2019-03-30T17:09:06.488Z,37.70
2019-03-30T17:11:36.250Z,41.73
2019-03-30T17:14:05.979Z,51.10
2019-03-30T17:16:35.613Z,50.88
2019-03-30T17:19:05.142Z,47.57
2019-03-30T17:21:34.980Z,52.75
2019-03-30T17:24:04.700Z,70.97
2019-03-30T17:26:34.283Z,70.83
2019-03-30T17:29:05.590Z,56.90
2019-03-30T17:31:35.430Z,52.45
2019-03-30T17:34:05.046Z,47.08
2019-03-30T17:36:34.778Z,52.77
2019-03-30T17:39:06.795Z,63.67
2019-03-30T17:41:36.487Z,75.42
2019-03-30T17:44:06.156Z,70.27
2019-03-30T17:46:35.862Z,103.83
2019-03-30T17:49:05.607Z,123.30
2019-03-30T17:51:35.419Z,145.35
2019-03-30T17:54:06.890Z,156.28
2019-03-30T17:56:36.619Z,138.60
2019-03-30T17:59:08.545Z,144.65
2019-03-30T18:01:38.232Z,231.68
2019-03-30T18:04:08.058Z,250.10
2019-03-30T18:06:37.802Z,145.40
2019-03-30T18:09:07.520Z,189.77
2019-03-30T18:11:37.144Z,76.63
2019-03-30T18:14:06.776Z,137.35
2019-03-30T18:16:36.605Z,53.20
2019-03-30T18:19:06.338Z,98.10
2019-03-30T18:21:37.908Z,72.20
2019-03-30T18:24:09.097Z,60.20
2019-03-30T18:26:38.854Z,67.83
2019-03-30T18:29:08.440Z,53.87
2019-03-30T18:31:39.973Z,68.40
2019-03-30T18:34:09.689Z,62.95
2019-03-30T18:36:40.070Z,70.50
2019-03-30T18:39:10.258Z,54.53
2019-03-30T18:41:39.995Z,59.83
2019-03-30T18:44:09.671Z,78.47
2019-03-30T18:46:39.301Z,100.77
2019-03-30T18:49:09.029Z,131.77
2019-03-30T18:51:39.586Z,121.80
2019-03-30T18:54:10.229Z,120.02
2019-03-30T18:56:39.962Z,107.37
2019-03-30T18:59:09.791Z,109.90
2019-03-30T19:01:39.414Z,100.40
2019-03-30T19:04:09.156Z,87.90
2019-03-30T19:06:39.197Z,99.90
2019-03-30T19:09:08.913Z,106.12
2019-03-30T19:11:38.604Z,94.30
2019-03-30T19:14:08.477Z,87.70
2019-03-30T19:16:38.113Z,82.12
2019-03-30T19:19:07.626Z,83.30
2019-03-30T19:21:37.258Z,92.17
2019-03-30T19:24:06.783Z,90.47
2019-03-30T19:26:36.441Z,81.15
2019-03-30T19:29:06.143Z,74.13
2019-03-30T19:31:35.779Z,75.33
2019-03-30T19:34:05.328Z,78.25
2019-03-30T19:36:34.922Z,83.92
2019-03-30T19:39:07.653Z,98.30
2019-03-30T19:41:37.352Z,94.15
2019-03-30T19:44:06.994Z,88.58
2019-03-30T19:46:36.602Z,82.73
2019-03-30T19:49:06.342Z,79.50
2019-03-30T19:51:36.773Z,75.20
2019-03-30T19:56:35.605Z,70.52
2019-03-30T19:59:10.925Z,72.97
2019-03-30T20:01:37.881Z,78.20
2019-03-30T20:04:08.004Z,75.17
2019-03-30T20:06:37.723Z,74.55
2019-03-30T20:09:09.192Z,74.80
2019-03-30T20:11:40.418Z,72.05
2019-03-30T20:14:10.080Z,73.72
2019-03-30T20:16:42.171Z,70.90
2019-03-30T20:19:12.888Z,74.87
2019-03-30T20:21:42.369Z,73.10
2019-03-30T20:24:11.919Z,73.47
2019-03-30T20:29:24.783Z,76.65
2019-03-30T20:31:43.923Z,85.07
2019-03-30T20:34:13.550Z,87.63
2019-03-30T20:36:43.384Z,96.07
2019-03-30T20:39:13.115Z,93.20
2019-03-30T20:41:42.945Z,94.05
2019-03-30T20:44:12.784Z,88.17
2019-03-30T20:46:43.792Z,82.67
2019-03-30T20:49:13.583Z,79.50
2019-03-30T20:51:44.441Z,75.70
2019-03-30T20:54:14.058Z,69.72
2019-03-30T20:56:43.686Z,63.20
2019-03-30T20:59:14.431Z,72.65
2019-03-30T21:01:44.170Z,59.80
2019-03-30T21:04:13.682Z,61.90
2019-03-30T21:06:43.318Z,59.08
2019-03-30T21:09:12.941Z,50.20
2019-03-30T21:11:42.673Z,54.60
2019-03-30T21:14:12.299Z,50.00
2019-03-30T21:16:41.937Z,48.47
2019-03-30T21:19:11.553Z,48.17
2019-03-30T21:21:41.287Z,44.03
2019-03-30T21:24:10.914Z,46.10
2019-03-30T21:26:40.353Z,46.95
2019-03-30T21:29:10.087Z,50.50
2019-03-30T21:31:39.797Z,55.20
2019-03-30T21:34:09.427Z,56.58
2019-03-30T21:36:40.282Z,57.78
2019-03-30T21:39:10.014Z,63.02
2019-03-30T21:41:39.841Z,64.00
2019-03-30T21:44:21.428Z,65.50
2019-03-30T21:46:40.735Z,71.30
2019-03-30T21:49:10.362Z,71.92
2019-03-30T21:51:39.989Z,70.40
2019-03-30T21:54:09.620Z,74.53
2019-03-30T21:56:39.249Z,77.45
2019-03-30T21:59:09.994Z,78.45
2019-03-30T22:01:39.734Z,83.82
2019-03-30T22:04:09.373Z,85.42
2019-03-30T22:06:38.886Z,85.97
2019-03-30T22:09:08.472Z,93.60
2019-03-30T22:11:38.137Z,94.77
2019-03-30T22:14:07.792Z,90.20
2019-03-30T22:16:37.285Z,88.17
2019-03-30T22:19:06.923Z,88.03
2019-03-30T22:21:36.507Z,97.13
2019-03-30T22:24:06.067Z,91.13
2019-03-30T22:26:35.704Z,96.07
2019-03-30T22:29:05.328Z,94.33
2019-03-30T22:31:35.056Z,100.83
2019-03-30T22:34:04.889Z,102.32
2019-03-30T22:36:34.483Z,95.70
2019-03-30T22:39:06.019Z,93.03
2019-03-30T22:41:35.720Z,87.97
2019-03-30T22:44:05.351Z,96.80
2019-03-30T22:46:35.202Z,117.77
2019-03-30T22:49:04.913Z,117.00
2019-03-30T22:51:34.644Z,112.25
2019-03-30T22:54:04.489Z,116.00
2019-03-30T22:56:35.220Z,98.12
2019-03-30T22:59:04.956Z,122.02
2019-03-30T23:01:34.784Z,116.20
2019-03-30T23:04:04.416Z,97.75
2019-03-30T23:06:34.059Z,91.27
2019-03-30T23:09:05.813Z,103.47
2019-03-30T23:11:35.951Z,96.82
2019-03-30T23:14:05.793Z,94.42
2019-03-30T23:16:35.567Z,96.10
2019-03-30T23:19:05.242Z,101.80
2019-03-30T23:21:35.795Z,105.87
2019-03-30T23:24:05.527Z,98.90
2019-03-30T23:26:35.148Z,99.60
2019-03-30T23:29:04.885Z,100.18
2019-03-30T23:31:34.615Z,100.57
2019-03-30T23:34:04.254Z,100.60
2019-03-30T23:36:33.983Z,100.47
2019-03-30T23:39:05.538Z,100.10
2019-03-30T23:41:35.174Z,94.07
2019-03-30T23:44:04.894Z,97.78
2019-03-30T23:46:34.493Z,95.17
2019-03-30T23:49:04.049Z,96.53
2019-03-30T23:51:33.682Z,96.60
2019-03-30T23:54:03.242Z,97.53
2019-03-30T23:56:32.835Z,93.00
2019-03-30T23:59:02.471Z,92.15
